sensor_id;sensor_type;location;lat;lon;timestamp;temperature;humidity
69009;SHT31;56065;52.472;13.380;2024-02-23T00:01:55;11.20;95.59
69009;SHT31;56065;52.472;13.380;2024-02-23T00:04:21;11.22;95.44
69009;SHT31;56065;52.472;13.380;2024-02-23T00:06:46;11.22;95.59
69009;SHT31;56065;52.472;13.380;2024-02-23T00:09:12;11.19;95.56
69009;SHT31;56065;52.472;13.380;2024-02-23T00:11:41;11.15;95.43
69009;SHT31;56065;52.472;13.380;2024-02-23T00:14:10;11.15;95.41
69009;SHT31;56065;52.472;13.380;2024-02-23T00:16:39;11.20;95.23
69009;SHT31;56065;52.472;13.380;2024-02-23T00:19:07;11.27;95.11
69009;SHT31;56065;52.472;13.380;2024-02-23T00:21:32;11.32;94.84
69009;SHT31;56065;52.472;13.380;2024-02-23T00:23:58;11.33;94.70
69009;SHT31;56065;52.472;13.380;2024-02-23T00:26:23;11.40;94.61
69009;SHT31;56065;52.472;13.380;2024-02-23T00:28:48;11.40;94.55
69009;SHT31;56065;52.472;13.380;2024-02-23T00:31:14;11.39;94.57
69009;SHT31;56065;52.472;13.380;2024-02-23T00:33:39;11.47;94.48
69009;SHT31;56065;52.472;13.380;2024-02-23T00:36:07;11.47;94.21
69009;SHT31;56065;52.472;13.380;2024-02-23T00:38:32;11.49;94.00
69009;SHT31;56065;52.472;13.380;2024-02-23T00:40:58;11.47;93.71
69009;SHT31;56065;52.472;13.380;2024-02-23T00:43:23;11.47;93.71
69009;SHT31;56065;52.472;13.380;2024-02-23T00:45:49;11.40;93.79
69009;SHT31;56065;52.472;13.380;2024-02-23T00:48:14;11.40;93.84
69009;SHT31;56065;52.472;13.380;2024-02-23T00:50:39;11.42;93.47
69009;SHT31;56065;52.472;13.380;2024-02-23T00:53:05;11.34;93.75
69009;SHT31;56065;52.472;13.380;2024-02-23T00:55:30;11.33;93.93
69009;SHT31;56065;52.472;13.380;2024-02-23T00:57:55;11.39;93.46
69009;SHT31;56065;52.472;13.380;2024-02-23T01:00:21;11.43;93.18
69009;SHT31;56065;52.472;13.380;2024-02-23T01:02:46;11.43;93.15
69009;SHT31;56065;52.472;13.380;2024-02-23T01:05:13;11.40;92.86
69009;SHT31;56065;52.472;13.380;2024-02-23T01:07:38;11.47;92.65
69009;SHT31;56065;52.472;13.380;2024-02-23T01:10:04;11.50;92.30
69009;SHT31;56065;52.472;13.380;2024-02-23T01:12:29;11.52;92.20
69009;SHT31;56065;52.472;13.380;2024-02-23T01:14:55;11.52;92.29
69009;SHT31;56065;52.472;13.380;2024-02-23T01:17:20;11.52;92.24
69009;SHT31;56065;52.472;13.380;2024-02-23T01:19:46;11.50;91.96
69009;SHT31;56065;52.472;13.380;2024-02-23T01:22:11;11.52;91.78
69009;SHT31;56065;52.472;13.380;2024-02-23T01:24:36;11.56;91.47
69009;SHT31;56065;52.472;13.380;2024-02-23T01:27:02;11.54;91.15
69009;SHT31;56065;52.472;13.380;2024-02-23T01:29:27;11.53;90.70
69009;SHT31;56065;52.472;13.380;2024-02-23T01:31:53;11.60;90.67
69009;SHT31;56065;52.472;13.380;2024-02-23T01:34:20;11.53;90.22
69009;SHT31;56065;52.472;13.380;2024-02-23T01:36:45;11.60;89.71
69009;SHT31;56065;52.472;13.380;2024-02-23T01:39:11;11.63;89.80
69009;SHT31;56065;52.472;13.380;2024-02-23T01:41:36;11.67;89.09
69009;SHT31;56065;52.472;13.380;2024-02-23T01:44:01;11.70;88.74
69009;SHT31;56065;52.472;13.380;2024-02-23T01:46:27;11.75;88.19
69009;SHT31;56065;52.472;13.380;2024-02-23T01:48:53;11.77;87.71
69009;SHT31;56065;52.472;13.380;2024-02-23T01:51:19;11.77;87.60
69009;SHT31;56065;52.472;13.380;2024-02-23T01:53:44;11.77;86.95
69009;SHT31;56065;52.472;13.380;2024-02-23T01:56:11;11.77;87.40
69009;SHT31;56065;52.472;13.380;2024-02-23T01:58:39;11.77;87.23
69009;SHT31;56065;52.472;13.380;2024-02-23T02:01:05;11.77;87.28
69009;SHT31;56065;52.472;13.380;2024-02-23T02:03:30;11.75;87.24
69009;SHT31;56065;52.472;13.380;2024-02-23T02:05:56;11.73;86.90
69009;SHT31;56065;52.472;13.380;2024-02-23T02:08:25;11.69;86.73
69009;SHT31;56065;52.472;13.380;2024-02-23T02:10:51;11.69;84.62
69009;SHT31;56065;52.472;13.380;2024-02-23T02:13:16;11.63;83.34
69009;SHT31;56065;52.472;13.380;2024-02-23T02:15:41;11.56;81.36
69009;SHT31;56065;52.472;13.380;2024-02-23T02:18:09;11.52;81.53
69009;SHT31;56065;52.472;13.380;2024-02-23T02:20:36;11.44;80.70
69009;SHT31;56065;52.472;13.380;2024-02-23T02:23:01;11.40;80.71
69009;SHT31;56065;52.472;13.380;2024-02-23T02:25:26;11.33;80.50
69009;SHT31;56065;52.472;13.380;2024-02-23T02:27:52;11.30;79.33
69009;SHT31;56065;52.472;13.380;2024-02-23T02:30:17;11.20;78.34
69009;SHT31;56065;52.472;13.380;2024-02-23T02:32:42;11.12;76.83
69009;SHT31;56065;52.472;13.380;2024-02-23T02:35:10;11.06;76.55
69009;SHT31;56065;52.472;13.380;2024-02-23T02:37:36;10.95;76.64
69009;SHT31;56065;52.472;13.380;2024-02-23T02:40:02;10.95;76.72
69009;SHT31;56065;52.472;13.380;2024-02-23T02:42:28;10.88;76.19
69009;SHT31;56065;52.472;13.380;2024-02-23T02:44:54;10.86;77.00
69009;SHT31;56065;52.472;13.380;2024-02-23T02:47:19;10.81;76.17
69009;SHT31;56065;52.472;13.380;2024-02-23T02:49:44;10.84;76.64
69009;SHT31;56065;52.472;13.380;2024-02-23T02:52:10;10.82;76.91
69009;SHT31;56065;52.472;13.380;2024-02-23T02:54:35;10.78;76.89
69009;SHT31;56065;52.472;13.380;2024-02-23T02:57:01;10.75;76.14
69009;SHT31;56065;52.472;13.380;2024-02-23T02:59:26;10.75;76.29
69009;SHT31;56065;52.472;13.380;2024-02-23T03:01:51;10.72;76.21
69009;SHT31;56065;52.472;13.380;2024-02-23T03:04:17;10.69;76.02
69009;SHT31;56065;52.472;13.380;2024-02-23T03:06:42;10.68;76.48
69009;SHT31;56065;52.472;13.380;2024-02-23T03:09:08;10.68;76.31
69009;SHT31;56065;52.472;13.380;2024-02-23T03:11:33;10.61;76.43
69009;SHT31;56065;52.472;13.380;2024-02-23T03:13:59;10.57;76.35
69009;SHT31;56065;52.472;13.380;2024-02-23T03:16:24;10.57;75.75
69009;SHT31;56065;52.472;13.380;2024-02-23T03:18:52;10.55;75.48
69009;SHT31;56065;52.472;13.380;2024-02-23T03:21:19;10.50;74.94
69009;SHT31;56065;52.472;13.380;2024-02-23T03:23:44;10.51;75.90
69009;SHT31;56065;52.472;13.380;2024-02-23T03:26:10;10.50;75.15
69009;SHT31;56065;52.472;13.380;2024-02-23T03:28:35;10.50;75.47
69009;SHT31;56065;52.472;13.380;2024-02-23T03:31:01;10.43;75.57
69009;SHT31;56065;52.472;13.380;2024-02-23T03:33:26;10.45;74.60
69009;SHT31;56065;52.472;13.380;2024-02-23T03:35:52;10.44;74.72
69009;SHT31;56065;52.472;13.380;2024-02-23T03:38:17;10.44;74.81
69009;SHT31;56065;52.472;13.380;2024-02-23T03:40:42;10.44;75.09
69009;SHT31;56065;52.472;13.380;2024-02-23T03:43:08;10.43;74.40
69009;SHT31;56065;52.472;13.380;2024-02-23T03:45:33;10.40;74.46
69009;SHT31;56065;52.472;13.380;2024-02-23T03:47:59;10.38;75.02
69009;SHT31;56065;52.472;13.380;2024-02-23T03:50:24;10.31;75.24
69009;SHT31;56065;52.472;13.380;2024-02-23T03:52:50;10.37;74.71
69009;SHT31;56065;52.472;13.380;2024-02-23T03:55:15;10.41;74.79
69009;SHT31;56065;52.472;13.380;2024-02-23T03:57:40;10.43;74.87
69009;SHT31;56065;52.472;13.380;2024-02-23T04:00:06;10.45;75.01
69009;SHT31;56065;52.472;13.380;2024-02-23T04:02:33;10.45;75.23
69009;SHT31;56065;52.472;13.380;2024-02-23T04:04:59;10.43;75.45
69009;SHT31;56065;52.472;13.380;2024-02-23T04:07:24;10.38;75.10
69009;SHT31;56065;52.472;13.380;2024-02-23T04:09:49;10.37;75.38
69009;SHT31;56065;52.472;13.380;2024-02-23T04:12:18;10.33;74.67
69009;SHT31;56065;52.472;13.380;2024-02-23T04:14:44;10.40;75.31
69009;SHT31;56065;52.472;13.380;2024-02-23T04:17:11;10.34;75.68
69009;SHT31;56065;52.472;13.380;2024-02-23T04:19:37;10.29;75.52
69009;SHT31;56065;52.472;13.380;2024-02-23T04:22:03;10.29;75.85
69009;SHT31;56065;52.472;13.380;2024-02-23T04:24:28;10.27;75.36
69009;SHT31;56065;52.472;13.380;2024-02-23T04:26:53;10.23;75.42
69009;SHT31;56065;52.472;13.380;2024-02-23T04:29:19;10.17;75.25
69009;SHT31;56065;52.472;13.380;2024-02-23T04:31:44;10.20;75.16
69009;SHT31;56065;52.472;13.380;2024-02-23T04:34:09;10.14;75.24
69009;SHT31;56065;52.472;13.380;2024-02-23T04:36:35;10.04;75.15
69009;SHT31;56065;52.472;13.380;2024-02-23T04:39:00;10.03;75.50
69009;SHT31;56065;52.472;13.380;2024-02-23T04:41:25;9.99;75.32
69009;SHT31;56065;52.472;13.380;2024-02-23T04:43:50;9.99;75.15
69009;SHT31;56065;52.472;13.380;2024-02-23T04:46:17;10.03;74.92
69009;SHT31;56065;52.472;13.380;2024-02-23T04:48:42;10.09;74.53
69009;SHT31;56065;52.472;13.380;2024-02-23T04:51:07;10.10;74.71
69009;SHT31;56065;52.472;13.380;2024-02-23T04:53:38;10.09;73.86
69009;SHT31;56065;52.472;13.380;2024-02-23T04:56:04;10.12;74.29
69009;SHT31;56065;52.472;13.380;2024-02-23T04:58:30;10.10;74.20
69009;SHT31;56065;52.472;13.380;2024-02-23T05:00:55;10.03;73.57
69009;SHT31;56065;52.472;13.380;2024-02-23T05:03:21;9.99;73.41
69009;SHT31;56065;52.472;13.380;2024-02-23T05:05:46;9.99;73.54
69009;SHT31;56065;52.472;13.380;2024-02-23T05:08:11;10.00;73.60
69009;SHT31;56065;52.472;13.380;2024-02-23T05:10:37;9.99;73.58
69009;SHT31;56065;52.472;13.380;2024-02-23T05:13:02;9.96;73.92
69009;SHT31;56065;52.472;13.380;2024-02-23T05:15:28;9.90;73.12
69009;SHT31;56065;52.472;13.380;2024-02-23T05:17:53;9.89;73.62
69009;SHT31;56065;52.472;13.380;2024-02-23T05:20:18;9.93;73.83
69009;SHT31;56065;52.472;13.380;2024-02-23T05:22:44;9.83;73.58
69009;SHT31;56065;52.472;13.380;2024-02-23T05:25:09;9.79;74.19
69009;SHT31;56065;52.472;13.380;2024-02-23T05:27:34;9.65;73.75
69009;SHT31;56065;52.472;13.380;2024-02-23T05:30:00;9.65;73.93
69009;SHT31;56065;52.472;13.380;2024-02-23T05:32:25;9.48;73.60
69009;SHT31;56065;52.472;13.380;2024-02-23T05:34:51;9.42;73.35
69009;SHT31;56065;52.472;13.380;2024-02-23T05:37:18;9.38;73.88
69009;SHT31;56065;52.472;13.380;2024-02-23T05:39:44;9.22;73.51
69009;SHT31;56065;52.472;13.380;2024-02-23T05:42:11;9.14;74.12
69009;SHT31;56065;52.472;13.380;2024-02-23T05:44:36;9.10;74.39
69009;SHT31;56065;52.472;13.380;2024-02-23T05:47:02;9.04;74.04
69009;SHT31;56065;52.472;13.380;2024-02-23T05:49:27;9.01;73.80
69009;SHT31;56065;52.472;13.380;2024-02-23T05:51:53;8.94;73.32
69009;SHT31;56065;52.472;13.380;2024-02-23T05:54:18;8.90;73.95
69009;SHT31;56065;52.472;13.380;2024-02-23T05:56:44;8.87;73.87
69009;SHT31;56065;52.472;13.380;2024-02-23T05:59:09;8.79;74.05
69009;SHT31;56065;52.472;13.380;2024-02-23T06:01:35;8.69;74.25
69009;SHT31;56065;52.472;13.380;2024-02-23T06:04:00;8.73;74.52
69009;SHT31;56065;52.472;13.380;2024-02-23T06:06:25;8.76;74.45
69009;SHT31;56065;52.472;13.380;2024-02-23T06:08:52;8.72;74.71
69009;SHT31;56065;52.472;13.380;2024-02-23T06:11:17;8.74;74.37
69009;SHT31;56065;52.472;13.380;2024-02-23T06:13:42;8.76;74.19
69009;SHT31;56065;52.472;13.380;2024-02-23T06:16:10;8.77;73.80
69009;SHT31;56065;52.472;13.380;2024-02-23T06:18:39;8.79;74.18
69009;SHT31;56065;52.472;13.380;2024-02-23T06:21:14;8.81;74.20
69009;SHT31;56065;52.472;13.380;2024-02-23T06:23:41;8.79;73.39
69009;SHT31;56065;52.472;13.380;2024-02-23T06:26:06;8.79;73.88
69009;SHT31;56065;52.472;13.380;2024-02-23T06:28:31;8.83;73.99
69009;SHT31;56065;52.472;13.380;2024-02-23T06:30:58;8.80;73.59
69009;SHT31;56065;52.472;13.380;2024-02-23T06:33:23;8.81;74.15
69009;SHT31;56065;52.472;13.380;2024-02-23T06:35:48;8.77;74.21
69009;SHT31;56065;52.472;13.380;2024-02-23T06:38:14;8.74;73.82
69009;SHT31;56065;52.472;13.380;2024-02-23T06:40:40;8.81;73.54
69009;SHT31;56065;52.472;13.380;2024-02-23T06:43:05;8.93;73.83
69009;SHT31;56065;52.472;13.380;2024-02-23T06:45:30;9.03;73.33
69009;SHT31;56065;52.472;13.380;2024-02-23T06:47:56;9.11;73.24
69009;SHT31;56065;52.472;13.380;2024-02-23T06:50:21;9.13;73.16
69009;SHT31;56065;52.472;13.380;2024-02-23T06:52:47;9.35;73.80
69009;SHT31;56065;52.472;13.380;2024-02-23T06:55:14;9.62;73.05
69009;SHT31;56065;52.472;13.380;2024-02-23T06:57:40;9.75;72.68
69009;SHT31;56065;52.472;13.380;2024-02-23T07:00:06;9.61;72.52
69009;SHT31;56065;52.472;13.380;2024-02-23T07:02:32;9.63;72.84
69009;SHT31;56065;52.472;13.380;2024-02-23T07:05:01;9.66;73.48
69009;SHT31;56065;52.472;13.380;2024-02-23T07:07:29;9.66;73.20
69009;SHT31;56065;52.472;13.380;2024-02-23T07:09:56;9.73;73.37
69009;SHT31;56065;52.472;13.380;2024-02-23T07:12:21;9.72;73.03
69009;SHT31;56065;52.472;13.380;2024-02-23T07:14:46;9.72;72.71
69009;SHT31;56065;52.472;13.380;2024-02-23T07:17:12;9.79;72.40
69009;SHT31;56065;52.472;13.380;2024-02-23T07:19:37;9.83;72.27
69009;SHT31;56065;52.472;13.380;2024-02-23T07:22:03;9.90;72.92
69009;SHT31;56065;52.472;13.380;2024-02-23T07:24:28;9.89;72.23
69009;SHT31;56065;52.472;13.380;2024-02-23T07:26:53;9.93;72.60
69009;SHT31;56065;52.472;13.380;2024-02-23T07:29:19;9.94;72.61
69009;SHT31;56065;52.472;13.380;2024-02-23T07:31:44;9.94;72.48
69009;SHT31;56065;52.472;13.380;2024-02-23T07:34:10;9.99;72.79
69009;SHT31;56065;52.472;13.380;2024-02-23T07:36:35;9.96;72.40
69009;SHT31;56065;52.472;13.380;2024-02-23T07:39:01;9.93;72.44
69009;SHT31;56065;52.472;13.380;2024-02-23T07:41:26;9.96;72.96
69009;SHT31;56065;52.472;13.380;2024-02-23T07:43:51;9.92;73.17
69009;SHT31;56065;52.472;13.380;2024-02-23T07:46:17;9.90;72.66
69009;SHT31;56065;52.472;13.380;2024-02-23T07:48:42;10.02;73.44
69009;SHT31;56065;52.472;13.380;2024-02-23T07:51:08;10.06;72.79
69009;SHT31;56065;52.472;13.380;2024-02-23T07:53:34;10.13;72.58
69009;SHT31;56065;52.472;13.380;2024-02-23T07:55:59;10.23;72.68
69009;SHT31;56065;52.472;13.380;2024-02-23T07:58:27;10.30;72.58
69009;SHT31;56065;52.472;13.380;2024-02-23T08:00:52;10.45;72.30
69009;SHT31;56065;52.472;13.380;2024-02-23T08:03:18;10.74;72.23
69009;SHT31;56065;52.472;13.380;2024-02-23T08:05:44;11.32;71.07
69009;SHT31;56065;52.472;13.380;2024-02-23T08:08:09;11.75;70.09
69009;SHT31;56065;52.472;13.380;2024-02-23T08:10:34;12.43;69.65
69009;SHT31;56065;52.472;13.380;2024-02-23T08:13:00;12.99;68.12
69009;SHT31;56065;52.472;13.380;2024-02-23T08:15:25;13.59;66.56
69009;SHT31;56065;52.472;13.380;2024-02-23T08:17:51;14.44;64.97
69009;SHT31;56065;52.472;13.380;2024-02-23T08:20:16;15.14;64.28
69009;SHT31;56065;52.472;13.380;2024-02-23T08:22:41;15.67;63.36
69009;SHT31;56065;52.472;13.380;2024-02-23T08:25:07;15.87;62.21
69009;SHT31;56065;52.472;13.380;2024-02-23T08:27:33;15.55;62.13
69009;SHT31;56065;52.472;13.380;2024-02-23T08:29:58;14.89;62.17
69009;SHT31;56065;52.472;13.380;2024-02-23T08:32:24;14.24;63.03
69009;SHT31;56065;52.472;13.380;2024-02-23T08:34:49;13.54;63.87
69009;SHT31;56065;52.472;13.380;2024-02-23T08:37:18;13.13;65.04
69009;SHT31;56065;52.472;13.380;2024-02-23T08:39:43;12.73;65.12
69009;SHT31;56065;52.472;13.380;2024-02-23T08:42:09;12.57;66.52
69009;SHT31;56065;52.472;13.380;2024-02-23T08:44:35;12.41;66.28
69009;SHT31;56065;52.472;13.380;2024-02-23T08:47:00;12.43;66.25
69009;SHT31;56065;52.472;13.380;2024-02-23T08:49:27;12.63;66.70
69009;SHT31;56065;52.472;13.380;2024-02-23T08:51:52;12.70;65.70
69009;SHT31;56065;52.472;13.380;2024-02-23T08:54:17;12.84;65.10
69009;SHT31;56065;52.472;13.380;2024-02-23T08:56:43;13.08;65.21
69009;SHT31;56065;52.472;13.380;2024-02-23T08:59:09;13.21;64.93
69009;SHT31;56065;52.472;13.380;2024-02-23T09:01:35;13.53;64.58
69009;SHT31;56065;52.472;13.380;2024-02-23T09:04:01;14.19;63.85
69009;SHT31;56065;52.472;13.380;2024-02-23T09:06:26;14.84;62.77
69009;SHT31;56065;52.472;13.380;2024-02-23T09:08:52;15.16;61.38
69009;SHT31;56065;52.472;13.380;2024-02-23T09:11:17;15.46;60.55
69009;SHT31;56065;52.472;13.380;2024-02-23T09:13:42;15.96;60.75
69009;SHT31;56065;52.472;13.380;2024-02-23T09:16:08;16.01;59.76
69009;SHT31;56065;52.472;13.380;2024-02-23T09:18:34;16.17;59.51
69009;SHT31;56065;52.472;13.380;2024-02-23T09:21:00;16.47;59.84
69009;SHT31;56065;52.472;13.380;2024-02-23T09:23:25;17.22;59.18
69009;SHT31;56065;52.472;13.380;2024-02-23T09:25:51;17.81;58.79
69009;SHT31;56065;52.472;13.380;2024-02-23T09:28:16;18.43;56.67
69009;SHT31;56065;52.472;13.380;2024-02-23T09:30:41;18.55;55.99
69009;SHT31;56065;52.472;13.380;2024-02-23T09:33:07;18.64;55.26
69009;SHT31;56065;52.472;13.380;2024-02-23T09:35:33;18.88;55.49
69009;SHT31;56065;52.472;13.380;2024-02-23T09:37:58;18.50;55.57
69009;SHT31;56065;52.472;13.380;2024-02-23T09:40:24;17.82;55.53
69009;SHT31;56065;52.472;13.380;2024-02-23T09:42:56;17.86;55.68
69009;SHT31;56065;52.472;13.380;2024-02-23T09:45:24;17.67;55.42
69009;SHT31;56065;52.472;13.380;2024-02-23T09:47:50;17.74;55.97
69009;SHT31;56065;52.472;13.380;2024-02-23T09:50:17;17.47;55.00
69009;SHT31;56065;52.472;13.380;2024-02-23T09:52:45;17.19;55.16
69009;SHT31;56065;52.472;13.380;2024-02-23T09:55:12;17.40;55.50
69009;SHT31;56065;52.472;13.380;2024-02-23T09:57:37;17.74;56.37
69009;SHT31;56065;52.472;13.380;2024-02-23T10:00:03;18.16;55.29
69009;SHT31;56065;52.472;13.380;2024-02-23T10:02:32;18.26;54.20
69009;SHT31;56065;52.472;13.380;2024-02-23T10:04:59;18.77;54.31
69009;SHT31;56065;52.472;13.380;2024-02-23T10:07:26;19.07;53.52
69009;SHT31;56065;52.472;13.380;2024-02-23T10:09:52;19.54;53.98
69009;SHT31;56065;52.472;13.380;2024-02-23T10:12:18;20.10;53.02
69009;SHT31;56065;52.472;13.380;2024-02-23T10:14:43;19.04;53.27
69009;SHT31;56065;52.472;13.380;2024-02-23T10:17:09;18.66;54.47
69009;SHT31;56065;52.472;13.380;2024-02-23T10:19:34;17.99;55.03
69009;SHT31;56065;52.472;13.380;2024-02-23T10:21:59;17.41;55.71
69009;SHT31;56065;52.472;13.380;2024-02-23T10:24:25;17.16;56.80
69009;SHT31;56065;52.472;13.380;2024-02-23T10:26:51;16.82;58.55
69009;SHT31;56065;52.472;13.380;2024-02-23T10:29:17;16.35;57.66
69009;SHT31;56065;52.472;13.380;2024-02-23T10:31:44;16.44;56.57
69009;SHT31;56065;52.472;13.380;2024-02-23T10:34:13;16.58;56.65
69009;SHT31;56065;52.472;13.380;2024-02-23T10:36:43;16.95;55.71
69009;SHT31;56065;52.472;13.380;2024-02-23T10:39:10;17.10;55.33
69009;SHT31;56065;52.472;13.380;2024-02-23T10:41:36;17.36;54.83
69009;SHT31;56065;52.472;13.380;2024-02-23T10:44:05;17.37;53.79
69009;SHT31;56065;52.472;13.380;2024-02-23T10:46:33;17.84;54.48
69009;SHT31;56065;52.472;13.380;2024-02-23T10:48:59;17.27;54.55
69009;SHT31;56065;52.472;13.380;2024-02-23T10:51:28;17.22;54.20
69009;SHT31;56065;52.472;13.380;2024-02-23T10:53:53;17.58;54.77
69009;SHT31;56065;52.472;13.380;2024-02-23T10:56:20;17.95;53.65
69009;SHT31;56065;52.472;13.380;2024-02-23T10:58:47;17.94;53.61
69009;SHT31;56065;52.472;13.380;2024-02-23T11:01:13;18.25;54.57
69009;SHT31;56065;52.472;13.380;2024-02-23T11:03:42;18.39;53.66
69009;SHT31;56065;52.472;13.380;2024-02-23T11:06:09;18.59;52.56
69009;SHT31;56065;52.472;13.380;2024-02-23T11:08:35;19.07;52.69
69009;SHT31;56065;52.472;13.380;2024-02-23T11:11:10;19.34;51.30
69009;SHT31;56065;52.472;13.380;2024-02-23T11:13:39;19.92;52.13
69009;SHT31;56065;52.472;13.380;2024-02-23T11:16:05;19.66;51.71
69009;SHT31;56065;52.472;13.380;2024-02-23T11:18:34;19.49;51.78
69009;SHT31;56065;52.472;13.380;2024-02-23T11:21:01;19.18;51.32
69009;SHT31;56065;52.472;13.380;2024-02-23T11:23:48;18.83;50.37
69009;SHT31;56065;52.472;13.380;2024-02-23T11:26:17;18.22;52.17
69009;SHT31;56065;52.472;13.380;2024-02-23T11:28:52;18.19;52.53
69009;SHT31;56065;52.472;13.380;2024-02-23T11:31:24;17.92;52.27
69009;SHT31;56065;52.472;13.380;2024-02-23T11:33:50;17.94;53.14
69009;SHT31;56065;52.472;13.380;2024-02-23T11:36:42;17.57;52.79
69009;SHT31;56065;52.472;13.380;2024-02-23T11:39:09;17.55;53.17
69009;SHT31;56065;52.472;13.380;2024-02-23T11:41:36;17.71;52.53
69009;SHT31;56065;52.472;13.380;2024-02-23T11:44:02;17.65;53.20
69009;SHT31;56065;52.472;13.380;2024-02-23T11:46:28;17.15;53.41
69009;SHT31;56065;52.472;13.380;2024-02-23T11:48:54;17.06;53.54
69009;SHT31;56065;52.472;13.380;2024-02-23T11:51:20;16.79;54.51
69009;SHT31;56065;52.472;13.380;2024-02-23T11:53:47;16.21;53.74
69009;SHT31;56065;52.472;13.380;2024-02-23T11:56:13;16.18;55.03
69009;SHT31;56065;52.472;13.380;2024-02-23T11:58:39;16.03;55.37
69009;SHT31;56065;52.472;13.380;2024-02-23T12:01:05;16.22;55.29
69009;SHT31;56065;52.472;13.380;2024-02-23T12:03:32;16.28;55.52
69009;SHT31;56065;52.472;13.380;2024-02-23T12:05:58;16.21;54.82
69009;SHT31;56065;52.472;13.380;2024-02-23T12:08:27;15.93;54.88
69009;SHT31;56065;52.472;13.380;2024-02-23T12:10:56;15.76;55.95
69009;SHT31;56065;52.472;13.380;2024-02-23T12:13:22;15.47;55.84
69009;SHT31;56065;52.472;13.380;2024-02-23T12:15:48;15.65;55.52
69009;SHT31;56065;52.472;13.380;2024-02-23T12:18:17;15.84;55.87
69009;SHT31;56065;52.472;13.380;2024-02-23T12:20:42;15.83;55.50
69009;SHT31;56065;52.472;13.380;2024-02-23T12:23:07;15.96;55.94
69009;SHT31;56065;52.472;13.380;2024-02-23T12:25:35;15.93;55.82
69009;SHT31;56065;52.472;13.380;2024-02-23T12:28:00;15.80;56.05
69009;SHT31;56065;52.472;13.380;2024-02-23T12:30:26;15.52;55.76
69009;SHT31;56065;52.472;13.380;2024-02-23T12:33:03;15.38;56.70
69009;SHT31;56065;52.472;13.380;2024-02-23T12:35:28;15.19;57.05
69009;SHT31;56065;52.472;13.380;2024-02-23T12:37:54;15.22;57.17
69009;SHT31;56065;52.472;13.380;2024-02-23T12:40:19;15.19;57.26
69009;SHT31;56065;52.472;13.380;2024-02-23T12:42:45;15.02;56.41
69009;SHT31;56065;52.472;13.380;2024-02-23T12:45:11;14.96;56.40
69009;SHT31;56065;52.472;13.380;2024-02-23T12:47:37;14.77;57.20
69009;SHT31;56065;52.472;13.380;2024-02-23T12:50:04;14.64;57.31
69009;SHT31;56065;52.472;13.380;2024-02-23T12:52:30;14.51;57.31
69009;SHT31;56065;52.472;13.380;2024-02-23T12:54:56;14.47;58.14
69009;SHT31;56065;52.472;13.380;2024-02-23T12:57:21;14.51;57.96
69009;SHT31;56065;52.472;13.380;2024-02-23T12:59:47;14.38;57.82
69009;SHT31;56065;52.472;13.380;2024-02-23T13:02:12;14.44;58.53
69009;SHT31;56065;52.472;13.380;2024-02-23T13:04:38;14.57;58.32
69009;SHT31;56065;52.472;13.380;2024-02-23T13:07:03;14.57;58.88
69009;SHT31;56065;52.472;13.380;2024-02-23T13:09:28;14.41;58.27
69009;SHT31;56065;52.472;13.380;2024-02-23T13:11:54;14.43;59.46
69009;SHT31;56065;52.472;13.380;2024-02-23T13:14:19;14.32;59.06
69009;SHT31;56065;52.472;13.380;2024-02-23T13:16:44;14.17;59.44
69009;SHT31;56065;52.472;13.380;2024-02-23T13:19:10;14.05;59.65
69009;SHT31;56065;52.472;13.380;2024-02-23T13:21:35;13.87;59.83
69009;SHT31;56065;52.472;13.380;2024-02-23T13:24:00;13.69;60.20
69009;SHT31;56065;52.472;13.380;2024-02-23T13:26:26;13.48;60.90
69009;SHT31;56065;52.472;13.380;2024-02-23T13:28:51;13.45;61.37
69009;SHT31;56065;52.472;13.380;2024-02-23T13:31:16;13.31;61.22
69009;SHT31;56065;52.472;13.380;2024-02-23T13:33:42;13.15;61.51
69009;SHT31;56065;52.472;13.380;2024-02-23T13:36:09;13.04;61.76
69009;SHT31;56065;52.472;13.380;2024-02-23T13:38:34;12.92;61.47
69009;SHT31;56065;52.472;13.380;2024-02-23T13:41:05;12.82;61.66
69009;SHT31;56065;52.472;13.380;2024-02-23T13:43:31;12.82;61.59
69009;SHT31;56065;52.472;13.380;2024-02-23T13:45:56;12.75;62.09
69009;SHT31;56065;52.472;13.380;2024-02-23T13:48:21;12.65;62.25
69009;SHT31;56065;52.472;13.380;2024-02-23T13:50:48;12.72;62.38
69009;SHT31;56065;52.472;13.380;2024-02-23T13:53:13;12.69;61.73
69009;SHT31;56065;52.472;13.380;2024-02-23T13:55:39;12.70;62.03
69009;SHT31;56065;52.472;13.380;2024-02-23T13:58:05;12.62;62.20
69009;SHT31;56065;52.472;13.380;2024-02-23T14:00:30;12.55;62.56
69009;SHT31;56065;52.472;13.380;2024-02-23T14:02:56;12.35;62.91
69009;SHT31;56065;52.472;13.380;2024-02-23T14:05:21;12.31;63.43
69009;SHT31;56065;52.472;13.380;2024-02-23T14:07:47;12.20;63.37
69009;SHT31;56065;52.472;13.380;2024-02-23T14:10:13;12.10;63.34
69009;SHT31;56065;52.472;13.380;2024-02-23T14:12:40;12.11;64.16
69009;SHT31;56065;52.472;13.380;2024-02-23T14:15:05;12.01;63.71
69009;SHT31;56065;52.472;13.380;2024-02-23T14:17:31;12.18;64.04
69009;SHT31;56065;52.472;13.380;2024-02-23T14:19:56;12.15;63.29
69009;SHT31;56065;52.472;13.380;2024-02-23T14:22:22;12.11;63.14
69009;SHT31;56065;52.472;13.380;2024-02-23T14:24:47;12.05;62.43
69009;SHT31;56065;52.472;13.380;2024-02-23T14:27:12;11.90;62.23
69009;SHT31;56065;52.472;13.380;2024-02-23T14:29:38;11.91;62.48
69009;SHT31;56065;52.472;13.380;2024-02-23T14:32:03;11.83;62.31
69009;SHT31;56065;52.472;13.380;2024-02-23T14:34:30;11.81;62.41
69009;SHT31;56065;52.472;13.380;2024-02-23T14:36:55;11.73;62.52
69009;SHT31;56065;52.472;13.380;2024-02-23T14:39:22;11.75;62.72
69009;SHT31;56065;52.472;13.380;2024-02-23T14:41:47;11.83;63.30
69009;SHT31;56065;52.472;13.380;2024-02-23T14:44:13;11.75;62.76
69009;SHT31;56065;52.472;13.380;2024-02-23T14:46:39;11.77;63.22
69009;SHT31;56065;52.472;13.380;2024-02-23T14:49:05;11.78;63.23
69009;SHT31;56065;52.472;13.380;2024-02-23T14:51:30;11.71;63.55
69009;SHT31;56065;52.472;13.380;2024-02-23T14:53:55;11.66;63.30
69009;SHT31;56065;52.472;13.380;2024-02-23T14:56:21;11.63;63.53
69009;SHT31;56065;52.472;13.380;2024-02-23T14:58:46;11.63;64.18
69009;SHT31;56065;52.472;13.380;2024-02-23T15:01:12;11.53;64.38
69009;SHT31;56065;52.472;13.380;2024-02-23T15:03:37;11.46;64.46
69009;SHT31;56065;52.472;13.380;2024-02-23T15:06:03;11.56;64.88
69009;SHT31;56065;52.472;13.380;2024-02-23T15:08:28;11.49;64.81
69009;SHT31;56065;52.472;13.380;2024-02-23T15:10:54;11.40;65.08